createdAt,value
2019-01-14T00:01:55.975Z,61.81
2019-01-14T00:04:24.157Z,61.87
2019-01-14T00:06:52.350Z,62.21
2019-01-14T00:09:23.387Z,61.85
2019-01-14T00:11:50.477Z,62.00
2019-01-14T00:14:18.658Z,61.98
2019-01-14T00:16:46.861Z,62.26
2019-01-14T00:19:15.057Z,62.14
2019-01-14T00:21:43.277Z,62.39
2019-01-14T00:24:11.467Z,62.41
2019-01-14T00:26:39.662Z,62.57
2019-01-14T00:29:07.843Z,62.50
2019-01-14T00:32:16.161Z,62.49
2019-01-14T00:34:44.336Z,62.45
2019-01-14T00:37:12.532Z,62.37
2019-01-14T00:39:40.721Z,61.87
2019-01-14T00:42:08.915Z,61.78
2019-01-14T00:44:37.101Z,61.82
2019-01-14T00:47:05.288Z,61.42
2019-01-14T00:49:33.464Z,60.94
2019-01-14T00:52:01.676Z,61.40
2019-01-14T00:54:29.881Z,61.04
2019-01-14T00:59:31.897Z,61.65
2019-01-14T01:02:00.101Z,61.37
2019-01-14T01:04:28.344Z,61.46
2019-01-14T01:06:56.562Z,61.59
2019-01-14T01:09:24.751Z,61.85
2019-01-14T01:11:52.941Z,60.76
2019-01-14T01:14:21.217Z,60.36
2019-01-14T01:16:49.422Z,60.45
2019-01-14T01:19:17.599Z,60.39
2019-01-14T01:21:45.793Z,60.00
2019-01-14T01:24:13.981Z,59.91
2019-01-14T01:26:42.192Z,59.76
2019-01-14T01:29:10.394Z,59.65
2019-01-14T01:31:38.593Z,59.66
2019-01-14T01:34:06.788Z,59.93
2019-01-14T01:36:34.990Z,59.84
2019-01-14T01:41:52.053Z,60.62
2019-01-14T01:44:20.228Z,60.67
2019-01-14T01:46:48.428Z,60.23
2019-01-14T01:49:16.606Z,60.60
2019-01-14T01:51:44.894Z,60.52
2019-01-14T01:54:13.077Z,60.78
2019-01-14T01:56:41.293Z,60.55
2019-01-14T01:59:09.474Z,61.14
2019-01-14T02:01:37.668Z,61.23
2019-01-14T02:04:05.855Z,61.56
2019-01-14T02:06:39.155Z,61.42
2019-01-14T02:12:11.956Z,62.04
2019-01-14T02:17:29.040Z,62.13
2019-01-14T02:19:57.245Z,62.28
2019-01-14T02:22:25.441Z,62.12
2019-01-14T02:24:53.621Z,61.86
2019-01-14T02:29:56.101Z,62.03
2019-01-14T02:32:24.304Z,62.23
2019-01-14T02:34:52.505Z,62.04
2019-01-14T02:37:20.730Z,62.53
2019-01-14T02:39:48.881Z,62.46
2019-01-14T02:42:17.085Z,62.38
2019-01-14T02:44:45.267Z,62.30
2019-01-14T02:47:13.459Z,62.51
2019-01-14T02:49:41.644Z,62.35
2019-01-14T02:52:09.837Z,62.40
2019-01-14T02:54:38.023Z,62.51
2019-01-14T02:57:06.229Z,62.53
2019-01-14T02:59:34.429Z,62.53
2019-01-14T03:02:22.095Z,62.13
2019-01-14T03:04:50.291Z,62.24
2019-01-14T03:07:18.478Z,62.12
2019-01-14T03:09:46.695Z,62.18
2019-01-14T03:12:14.895Z,61.99
2019-01-14T03:15:02.207Z,61.64
2019-01-14T03:17:30.392Z,61.89
2019-01-14T03:20:38.719Z,61.29
2019-01-14T03:23:06.911Z,61.37
2019-01-14T03:25:35.101Z,61.41
2019-01-14T03:30:36.894Z,64.54
2019-01-14T03:33:05.108Z,65.55
2019-01-14T03:35:33.281Z,66.23
2019-01-14T03:38:01.491Z,66.71
2019-01-14T03:40:29.690Z,67.47
2019-01-14T03:45:32.109Z,69.59
2019-01-14T03:48:00.325Z,70.23
2019-01-14T03:50:28.510Z,70.72
2019-01-14T03:52:56.694Z,70.79
2019-01-14T03:55:24.893Z,71.35
2019-01-14T03:57:53.096Z,71.27
2019-01-14T04:00:21.310Z,71.14
2019-01-14T04:02:49.490Z,70.98
2019-01-14T04:05:17.708Z,70.78
2019-01-14T04:07:45.889Z,70.59
2019-01-14T04:10:54.208Z,70.32
2019-01-14T04:13:22.419Z,70.17
2019-01-14T04:15:50.602Z,70.13
2019-01-14T04:18:18.789Z,70.22
2019-01-14T04:20:46.972Z,69.98
2019-01-14T04:23:15.151Z,69.97
2019-01-14T04:25:43.350Z,69.90
2019-01-14T04:28:11.568Z,69.56
2019-01-14T04:30:39.746Z,69.57
2019-01-14T04:36:21.607Z,68.18
2019-01-14T04:41:24.713Z,66.74
2019-01-14T04:43:52.913Z,65.66
2019-01-14T04:46:21.111Z,66.00
2019-01-14T04:48:49.298Z,64.85
2019-01-14T04:51:17.489Z,64.81
2019-01-14T04:54:04.819Z,63.95
2019-01-14T04:56:32.996Z,63.79
2019-01-14T04:59:01.229Z,63.42
2019-01-14T05:01:29.429Z,63.73
2019-01-14T05:03:57.620Z,63.46
2019-01-14T05:09:20.533Z,63.15
2019-01-14T05:11:48.714Z,63.38
2019-01-14T05:14:16.898Z,63.76
2019-01-14T05:16:45.104Z,63.30
2019-01-14T05:19:13.288Z,63.29
2019-01-14T05:21:41.485Z,62.49
2019-01-14T05:24:09.673Z,62.55
2019-01-14T05:26:37.874Z,62.70
2019-01-14T05:29:25.582Z,61.65
2019-01-14T05:31:53.779Z,62.35
2019-01-14T05:34:21.969Z,62.28
2019-01-14T05:39:24.002Z,61.53
2019-01-14T05:41:52.195Z,61.90
2019-01-14T05:44:20.385Z,61.84
2019-01-14T05:46:48.613Z,62.05
2019-01-14T05:49:16.804Z,61.45
2019-01-14T05:51:45.002Z,61.89
2019-01-14T05:54:13.194Z,61.85
2019-01-14T05:56:41.391Z,61.62
2019-01-14T06:02:23.869Z,61.50
2019-01-14T06:04:52.054Z,61.32
2019-01-14T06:07:20.259Z,61.52
2019-01-14T06:09:48.437Z,61.58
2019-01-14T06:12:16.658Z,61.03
2019-01-14T06:14:44.844Z,61.52
2019-01-14T06:17:13.037Z,60.98
2019-01-14T06:19:41.230Z,60.60
2019-01-14T06:22:09.455Z,60.99
2019-01-14T06:24:37.643Z,60.64
2019-01-14T06:27:05.861Z,60.74
2019-01-14T06:29:34.073Z,60.35
2019-01-14T06:32:02.271Z,60.00
2019-01-14T06:34:30.467Z,60.09
2019-01-14T06:36:58.690Z,60.00
2019-01-14T06:39:26.870Z,59.59
2019-01-14T06:41:55.061Z,60.05
2019-01-14T06:44:23.259Z,59.52
2019-01-14T06:46:51.445Z,59.60
2019-01-14T06:49:19.646Z,59.50
2019-01-14T06:51:47.835Z,59.75
2019-01-14T06:54:16.048Z,59.68
2019-01-14T06:57:03.345Z,59.70
2019-01-14T06:59:31.543Z,60.27
2019-01-14T07:01:59.721Z,60.71
2019-01-14T07:04:27.938Z,61.32
2019-01-14T07:06:56.147Z,62.04
2019-01-14T07:09:24.354Z,62.19
2019-01-14T07:14:41.421Z,62.88
2019-01-14T07:17:09.614Z,63.10
2019-01-14T07:19:37.810Z,63.12
2019-01-14T07:22:06.024Z,63.23
2019-01-14T07:24:34.246Z,63.68
2019-01-14T07:27:02.456Z,64.60
2019-01-14T07:29:30.664Z,67.50
2019-01-14T07:31:58.859Z,68.74
2019-01-14T07:34:46.423Z,68.79
2019-01-14T07:37:14.614Z,68.88
2019-01-14T07:39:42.834Z,69.49
2019-01-14T07:44:58.269Z,69.77
2019-01-14T07:47:26.533Z,69.85
2019-01-14T07:49:54.725Z,69.80
2019-01-14T07:52:22.905Z,69.55
2019-01-14T07:54:51.107Z,69.34
2019-01-14T07:57:19.305Z,69.04
2019-01-14T08:00:07.144Z,69.03
2019-01-14T08:02:35.350Z,68.69
2019-01-14T08:05:03.550Z,68.86
2019-01-14T08:07:31.740Z,68.54
2019-01-14T08:09:59.954Z,68.41
2019-01-14T08:12:28.137Z,68.09
2019-01-14T08:14:56.322Z,68.11
2019-01-14T08:17:43.631Z,67.70
2019-01-14T08:20:51.944Z,67.69
2019-01-14T08:26:07.381Z,67.79
2019-01-14T08:28:35.593Z,67.77
2019-01-14T08:31:03.795Z,68.65
2019-01-14T08:33:32.006Z,70.70
2019-01-14T08:36:00.201Z,71.16
2019-01-14T08:38:28.385Z,71.32
2019-01-14T08:48:48.900Z,71.53
2019-01-14T08:51:16.282Z,71.30
2019-01-14T08:53:44.499Z,71.27
2019-01-14T08:56:12.697Z,71.08
2019-01-14T08:58:40.890Z,70.87
2019-01-14T09:01:09.074Z,70.28
2019-01-14T09:04:22.212Z,69.67
2019-01-14T09:06:47.301Z,68.27
2019-01-14T09:09:15.494Z,68.36
2019-01-14T09:11:43.701Z,67.75
2019-01-14T09:16:59.132Z,67.61
2019-01-14T09:19:27.337Z,67.40
2019-01-14T09:24:29.747Z,65.86
2019-01-14T09:26:57.962Z,65.72
2019-01-14T09:29:45.517Z,64.47
2019-01-14T09:34:53.175Z,63.81
2019-01-14T09:37:21.392Z,64.07
2019-01-14T09:40:08.945Z,66.26
2019-01-14T09:42:56.249Z,66.14
2019-01-14T09:45:24.459Z,66.92
2019-01-14T09:47:52.663Z,67.15
2019-01-14T09:50:20.852Z,65.51
2019-01-14T09:52:49.058Z,67.17
2019-01-14T09:55:57.387Z,68.04
2019-01-14T09:58:25.594Z,66.50
2019-01-14T10:00:53.783Z,66.78
2019-01-14T10:03:21.987Z,68.38
2019-01-14T10:05:50.169Z,68.83
2019-01-14T10:08:18.369Z,69.60
2019-01-14T10:10:46.578Z,68.50
2019-01-14T10:13:14.762Z,69.61
2019-01-14T10:15:42.959Z,70.29
2019-01-14T10:18:11.165Z,67.79
2019-01-14T10:20:58.460Z,68.06
2019-01-14T10:23:26.659Z,68.04
2019-01-14T10:25:54.876Z,66.36
2019-01-14T10:28:23.058Z,66.66
2019-01-14T10:30:51.259Z,66.53
2019-01-14T10:33:38.827Z,67.09
2019-01-14T10:36:26.143Z,66.71
2019-01-14T10:38:54.328Z,66.05
2019-01-14T10:41:22.546Z,65.93
2019-01-14T10:43:50.733Z,65.14
2019-01-14T10:46:18.937Z,64.93
2019-01-14T10:48:47.121Z,64.41
2019-01-14T10:51:34.687Z,63.57
2019-01-14T10:54:02.890Z,64.08
2019-01-14T10:56:31.090Z,63.91
2019-01-14T10:58:59.274Z,62.53
2019-01-14T11:01:27.471Z,62.29
2019-01-14T11:03:55.654Z,62.50
2019-01-14T11:06:23.850Z,62.15
2019-01-14T11:08:57.549Z,60.71
2019-01-14T11:11:21.961Z,60.67
2019-01-14T11:13:50.167Z,61.12
2019-01-14T11:16:37.498Z,61.58
2019-01-14T11:19:05.687Z,61.65
2019-01-14T11:21:33.893Z,61.46
2019-01-14T11:24:21.447Z,60.52
2019-01-14T11:26:49.646Z,60.74
2019-01-14T11:29:17.870Z,60.87
2019-01-14T11:31:46.074Z,59.47
2019-01-14T11:39:35.182Z,59.63
2019-01-14T11:42:43.518Z,58.88
2019-01-14T11:48:12.841Z,59.20
2019-01-14T11:50:41.029Z,58.96
2019-01-14T11:53:09.237Z,58.58
2019-01-14T11:55:37.442Z,58.70
2019-01-14T11:58:05.681Z,58.69
2019-01-14T12:00:41.051Z,57.71
2019-01-14T12:03:09.265Z,58.37
2019-01-14T12:05:37.452Z,58.27
2019-01-14T12:08:05.642Z,58.44
2019-01-14T12:10:33.826Z,57.56
2019-01-14T12:13:02.022Z,57.51
2019-01-14T12:15:30.213Z,56.60
2019-01-14T12:17:58.429Z,57.45
2019-01-14T12:20:26.625Z,55.03
2019-01-14T12:22:54.842Z,54.74
2019-01-14T12:25:23.032Z,54.58
2019-01-14T12:27:51.232Z,54.78
2019-01-14T12:30:59.548Z,54.48
2019-01-14T12:33:27.754Z,54.87
2019-01-14T12:35:55.942Z,55.06
2019-01-14T12:38:24.138Z,54.32
2019-01-14T12:40:52.342Z,54.44
2019-01-14T12:43:20.522Z,54.98
2019-01-14T12:45:48.748Z,54.71
2019-01-14T12:48:16.938Z,54.51
2019-01-14T12:51:25.242Z,54.89
2019-01-14T12:53:53.506Z,53.84
2019-01-14T12:56:21.689Z,54.90
2019-01-14T12:58:49.878Z,54.96
2019-01-14T13:01:37.439Z,55.61
2019-01-14T13:04:05.665Z,56.04
2019-01-14T13:06:33.850Z,56.43
2019-01-14T13:09:02.037Z,58.18
2019-01-14T13:11:30.265Z,61.61
2019-01-14T13:13:58.468Z,63.08
2019-01-14T13:16:26.672Z,63.69
2019-01-14T13:18:54.878Z,63.68
2019-01-14T13:21:23.101Z,64.34
2019-01-14T13:23:51.307Z,64.59
2019-01-14T13:26:19.504Z,64.45
2019-01-14T13:28:47.710Z,64.59
2019-01-14T13:31:15.905Z,64.37
2019-01-14T13:34:03.201Z,63.87
2019-01-14T13:36:31.403Z,64.16
2019-01-14T13:38:59.591Z,63.44
2019-01-14T13:41:47.215Z,63.33
2019-01-14T13:44:15.400Z,63.10
2019-01-14T13:46:43.605Z,62.39
2019-01-14T13:49:11.815Z,62.56
2019-01-14T13:51:40.017Z,62.20
2019-01-14T13:54:08.202Z,62.04
2019-01-14T13:56:36.399Z,61.61
2019-01-14T13:59:04.584Z,61.73
2019-01-14T14:02:12.898Z,61.70
2019-01-14T14:04:41.086Z,61.38
2019-01-14T14:07:09.293Z,60.90
2019-01-14T14:09:41.281Z,61.20
2019-01-14T14:12:26.775Z,61.35
2019-01-14T14:14:54.966Z,61.52
2019-01-14T14:17:23.182Z,61.25
2019-01-14T14:19:51.435Z,64.77
2019-01-14T14:22:19.634Z,63.83
2019-01-14T14:24:47.823Z,62.54
2019-01-14T14:29:50.074Z,63.02
2019-01-14T14:32:18.222Z,61.01
2019-01-14T14:34:46.442Z,61.25
2019-01-14T14:37:14.631Z,62.01
2019-01-14T14:39:48.488Z,59.63
2019-01-14T14:42:12.740Z,61.15
2019-01-14T14:44:40.929Z,63.39
2019-01-14T14:47:09.407Z,59.69
2019-01-14T14:49:39.046Z,62.99
2019-01-14T14:52:07.224Z,60.68
2019-01-14T14:54:35.428Z,61.52
2019-01-14T14:57:03.614Z,60.14
2019-01-14T14:59:31.810Z,60.91
2019-01-14T15:01:59.990Z,61.54
2019-01-14T15:04:28.212Z,60.67
2019-01-14T15:06:56.426Z,62.95
2019-01-14T15:09:31.411Z,62.78
2019-01-14T15:11:54.557Z,60.00
2019-01-14T15:14:22.775Z,62.16
2019-01-14T15:16:50.965Z,61.15
2019-01-14T15:19:38.607Z,62.34
2019-01-14T15:22:06.789Z,61.43
2019-01-14T15:24:35.051Z,62.75
2019-01-14T15:27:03.200Z,64.63
2019-01-14T15:29:31.398Z,63.88
2019-01-14T15:31:59.584Z,62.29
2019-01-14T15:34:27.802Z,62.41
2019-01-14T15:37:15.356Z,61.35
2019-01-14T15:39:43.559Z,63.64
2019-01-14T15:42:11.746Z,62.50
2019-01-14T15:44:39.942Z,64.13
2019-01-14T15:50:22.367Z,64.75
2019-01-14T15:52:50.554Z,62.95
2019-01-14T15:55:38.178Z,63.81
2019-01-14T15:58:06.369Z,63.43
2019-01-14T16:00:34.575Z,62.40
2019-01-14T16:03:02.765Z,63.43
2019-01-14T16:05:30.970Z,60.55
2019-01-14T16:07:59.156Z,61.51
2019-01-14T16:11:07.487Z,63.20
2019-01-14T16:13:35.677Z,63.91
2019-01-14T16:16:03.900Z,61.92
2019-01-14T16:18:51.195Z,63.32
2019-01-14T16:21:19.392Z,61.92
2019-01-14T16:23:47.594Z,63.03
2019-01-14T16:26:15.814Z,62.85
2019-01-14T16:28:44.019Z,61.35
2019-01-14T16:31:12.199Z,63.61
2019-01-14T16:33:40.380Z,65.04
2019-01-14T16:36:48.707Z,63.54
2019-01-14T16:39:16.891Z,62.58
2019-01-14T16:41:45.090Z,63.21
2019-01-14T16:44:13.282Z,62.77
2019-01-14T16:46:41.484Z,62.75
2019-01-14T16:49:09.669Z,62.59
2019-01-14T16:51:37.893Z,62.23
2019-01-14T16:54:06.090Z,61.74
2019-01-14T16:56:34.305Z,63.11
2019-01-14T16:59:21.609Z,61.66
2019-01-14T17:01:49.941Z,64.70
2019-01-14T17:04:18.128Z,63.81
2019-01-14T17:06:46.347Z,61.82
2019-01-14T17:09:14.551Z,64.05
2019-01-14T17:11:42.755Z,62.81
2019-01-14T17:14:30.390Z,61.69
2019-01-14T17:16:58.591Z,60.82
2019-01-14T17:19:26.774Z,61.33
2019-01-14T17:22:14.673Z,62.45
2019-01-14T17:24:42.874Z,61.36
2019-01-14T17:27:11.070Z,60.57
2019-01-14T17:32:26.498Z,61.66
2019-01-14T17:35:13.801Z,62.03
2019-01-14T17:37:41.998Z,62.41
2019-01-14T17:43:23.729Z,63.06
2019-01-14T17:45:51.925Z,63.31
2019-01-14T17:48:20.180Z,63.83
2019-01-14T17:50:48.362Z,64.08
2019-01-14T17:53:16.565Z,64.22
2019-01-14T17:55:44.783Z,64.32
2019-01-14T17:58:12.961Z,64.48
2019-01-14T18:00:41.163Z,64.51
2019-01-14T18:03:09.343Z,64.62
2019-01-14T18:08:32.182Z,64.68
2019-01-14T18:11:01.776Z,64.48
2019-01-14T18:13:30.279Z,64.01
2019-01-14T18:15:58.475Z,63.86
2019-01-14T18:18:26.666Z,63.66
2019-01-14T18:21:14.232Z,63.03
2019-01-14T18:23:42.450Z,63.09
2019-01-14T18:26:30.012Z,63.15
2019-01-14T18:28:58.223Z,63.39
2019-01-14T18:31:26.475Z,63.56
2019-01-14T18:33:54.678Z,63.64
2019-01-14T18:36:41.987Z,63.98
2019-01-14T18:39:10.191Z,64.12
2019-01-14T18:41:38.381Z,64.21
2019-01-14T18:44:06.564Z,64.41
2019-01-14T18:46:36.092Z,64.58
2019-01-14T18:49:04.682Z,65.09
2019-01-14T18:51:32.880Z,64.87
2019-01-14T18:54:01.068Z,65.17
2019-01-14T18:56:29.282Z,65.24
2019-01-14T18:58:57.471Z,65.51
2019-01-14T19:01:25.699Z,65.84
2019-01-14T19:03:53.879Z,66.00
2019-01-14T19:08:55.714Z,66.10
2019-01-14T19:11:43.044Z,66.10
2019-01-14T19:14:11.250Z,65.86
2019-01-14T19:16:39.456Z,66.07
2019-01-14T19:19:07.646Z,66.13
2019-01-14T19:21:35.851Z,66.37
2019-01-14T19:24:04.035Z,66.30
2019-01-14T19:26:32.235Z,66.68
2019-01-14T19:29:00.439Z,66.75
2019-01-14T19:31:28.660Z,66.92
2019-01-14T19:33:56.841Z,67.12
2019-01-14T19:36:25.038Z,67.12
2019-01-14T19:38:53.225Z,67.01
2019-01-14T19:44:16.358Z,66.98
2019-01-14T19:46:44.577Z,67.19
2019-01-14T19:49:12.768Z,67.16
2019-01-14T19:51:40.968Z,67.13
2019-01-14T19:54:28.518Z,67.20
2019-01-14T19:56:56.719Z,67.25
2019-01-14T19:59:44.271Z,67.18
2019-01-14T20:02:12.489Z,67.10
2019-01-14T20:04:40.670Z,67.11
2019-01-14T20:07:11.110Z,67.26
2019-01-14T20:09:38.790Z,67.20
2019-01-14T20:12:26.128Z,67.02
2019-01-14T20:14:54.306Z,66.97
2019-01-14T20:19:56.238Z,66.71
2019-01-14T20:24:58.319Z,66.51
2019-01-14T20:27:26.720Z,66.07
2019-01-14T20:30:14.250Z,65.69
2019-01-14T20:32:42.452Z,65.85
2019-01-14T20:35:29.797Z,65.62
2019-01-14T20:37:58.008Z,65.44
2019-01-14T20:40:26.190Z,64.67
2019-01-14T20:42:54.391Z,64.71
2019-01-14T20:45:22.582Z,64.36
2019-01-14T20:47:50.770Z,64.46
2019-01-14T20:50:59.083Z,63.86
2019-01-14T20:53:27.276Z,64.01
2019-01-14T20:59:08.891Z,63.40
2019-01-14T21:01:37.086Z,62.96
2019-01-14T21:04:05.288Z,63.06
2019-01-14T21:06:33.502Z,62.92
2019-01-14T21:09:21.132Z,62.99
2019-01-14T21:12:08.758Z,63.03
2019-01-14T21:14:36.959Z,62.92
2019-01-14T21:19:52.391Z,63.20
2019-01-14T21:22:20.574Z,63.34
2019-01-14T21:25:08.274Z,63.23
2019-01-14T21:27:36.488Z,63.19
2019-01-14T21:30:44.799Z,63.34
2019-01-14T21:33:13.005Z,63.04
2019-01-14T21:35:41.232Z,62.84
2019-01-14T21:38:09.411Z,63.00
2019-01-14T21:40:37.605Z,62.69
2019-01-14T21:43:05.787Z,62.67
2019-01-14T21:45:33.982Z,62.51
2019-01-14T21:48:02.171Z,62.40
2019-01-14T21:50:30.378Z,62.37
2019-01-14T21:52:58.581Z,61.66
2019-01-14T21:55:46.144Z,61.69
2019-01-14T21:58:14.332Z,61.31
2019-01-14T22:00:42.552Z,61.33
2019-01-14T22:03:10.755Z,61.40
2019-01-14T22:05:38.961Z,61.35
2019-01-14T22:08:07.166Z,61.00
2019-01-14T22:10:36.113Z,61.04
2019-01-14T22:13:05.247Z,61.02
2019-01-14T22:15:33.456Z,60.39
2019-01-14T22:18:01.642Z,60.72
2019-01-14T22:20:29.863Z,60.81
2019-01-14T22:23:17.419Z,60.85
2019-01-14T22:25:45.615Z,60.72
2019-01-14T22:28:13.799Z,60.93
2019-01-14T22:30:41.994Z,60.82
2019-01-14T22:33:10.182Z,60.90
2019-01-14T22:35:38.384Z,61.12
2019-01-14T22:40:40.803Z,61.29
2019-01-14T22:43:09.005Z,61.47
2019-01-14T22:45:37.181Z,61.66
2019-01-14T22:48:05.388Z,61.99
2019-01-14T22:50:33.592Z,62.25
2019-01-14T22:55:35.923Z,62.71
2019-01-14T22:58:04.113Z,62.81
2019-01-14T23:03:33.502Z,63.32
2019-01-14T23:06:01.730Z,63.47
2019-01-14T23:08:29.927Z,63.76
2019-01-14T23:10:58.115Z,63.76
2019-01-14T23:13:26.334Z,63.70
2019-01-14T23:15:54.522Z,63.71
2019-01-14T23:18:22.716Z,63.78
2019-01-14T23:20:50.907Z,63.78
2019-01-14T23:23:19.105Z,63.64
2019-01-14T23:25:47.310Z,63.57
2019-01-14T23:28:15.512Z,63.45
2019-01-14T23:30:43.692Z,63.40
2019-01-14T23:33:11.922Z,63.41
2019-01-14T23:35:40.106Z,63.34
2019-01-14T23:38:08.301Z,63.35
2019-01-14T23:40:36.490Z,63.36
2019-01-14T23:43:04.701Z,63.13
2019-01-14T23:45:52.333Z,63.24
2019-01-14T23:48:20.520Z,63.09
2019-01-14T23:50:48.704Z,63.30
2019-01-14T23:53:16.901Z,63.36
2019-01-14T23:55:45.093Z,63.25
2019-01-14T23:58:53.398Z,63.28
